Gratiot, Wisconsin
Current Conditions -  °F | °C
As of 9:55 PM on Wednesday 17 Dec 2014 (Local Time) from KEFT Reporting Station
Overcast Overcast  
Wind Chill: 15°   Ceiling: 1800
Heat Index: 21°   Visibility: 10mi
Dew Point: 18°   Wind: 5mph
Humidity: 86%   Direction: 330°NNW
Pressure: 30.25"   Gusts: NA
Location:  42.58°N, 90.02°W
Report Text: KEFT 180355Z AUTO 33004KT 10SM OVC018 M06/M08 A3025 RMK AO2
Loading
Personal Weather Stations






























Interactive Weather Map New forecast layout! Learn more

10-Day Weather Forecast

Advertisements
Track Severe Weather on mobile